Time;durP1;ratioP1;P1;durP2;ratioP2;P2;SDS_P1;SDS_P2;PMS_P1;PMS_P2;Temp;Humidity;BMP_temperature;BMP_pressure;BME280_temperature;BME280_humidity;BME280_pressure;Samples;Min_cycle;Max_cycle;Signal;HPM_P1;HPM_P2
2022/05/26 00:02:03;;;;;;;7.93;7.18;;;;;;;10.95;100.00;99665.19;5013617;28;20022;-77
2022/05/26 00:04:29;;;;;;;8.32;7.53;;;;;;;10.98;100.00;99670.25;5013592;28;20049;-76
2022/05/26 00:06:55;;;;;;;7.80;7.00;;;;;;;10.92;100.00;99664.50;5013288;28;20498;-77
2022/05/26 00:09:22;;;;;;;7.40;6.70;;;;;;;10.96;100.00;99674.72;5013364;28;20030;-76
2022/05/26 00:11:47;;;;;;;7.68;6.97;;;;;;;10.89;100.00;99667.25;5013126;28;20056;-77
2022/05/26 00:14:13;;;;;;;8.50;7.07;;;;;;;10.88;100.00;99665.56;5013248;28;20034;-77
2022/05/26 00:16:44;;;;;;;7.32;6.63;;;;;;;10.87;100.00;99662.13;5013201;28;20502;-77
2022/05/26 00:19:15;;;;;;;8.40;7.55;;;;;;;10.89;100.00;99662.88;5013236;28;20026;-77
2022/05/26 00:21:41;;;;;;;7.82;7.18;;;;;;;10.90;100.00;99668.94;5013064;28;20038;-77
2022/05/26 00:24:07;;;;;;;9.10;8.23;;;;;;;10.81;100.00;99653.75;5013152;28;20360;-76
2022/05/26 00:26:33;;;;;;;8.88;7.95;;;;;;;10.92;100.00;99672.31;5012829;28;20022;-77
2022/05/26 00:28:58;;;;;;;9.68;8.40;;;;;;;10.89;100.00;99662.88;5013161;28;20505;-76
2022/05/26 00:31:24;;;;;;;8.75;7.72;;;;;;;10.89;100.00;99668.09;5013159;28;20026;-76
2022/05/26 00:33:49;;;;;;;8.82;7.28;;;;;;;10.87;100.00;99671.69;5012895;28;20033;-76
2022/05/26 00:36:17;;;;;;;8.52;7.60;;;;;;;10.81;100.00;99669.38;5013023;28;20109;-77
2022/05/26 00:38:43;;;;;;;7.60;6.95;;;;;;;10.79;100.00;99661.66;5012674;28;20036;-77
2022/05/26 00:41:11;;;;;;;8.02;7.22;;;;;;;10.82;100.00;99674.50;5012852;28;20034;-77
2022/05/26 00:43:42;;;;;;;8.73;8.00;;;;;;;10.84;100.00;99670.06;5012784;28;20112;-76
2022/05/26 00:46:17;;;;;;;9.13;8.32;;;;;;;10.86;100.00;99673.44;5012703;28;20054;-77
2022/05/26 00:48:47;;;;;;;9.95;7.68;;;;;;;10.83;100.00;99668.41;5012373;28;20471;-76
2022/05/26 00:51:15;;;;;;;11.10;8.65;;;;;;;10.76;100.00;99659.16;5012131;28;20137;-77
2022/05/26 00:53:49;;;;;;;9.85;8.88;;;;;;;10.76;100.00;99663.53;5012351;28;20447;-77
2022/05/26 00:56:19;;;;;;;8.85;8.05;;;;;;;10.76;100.00;99667.00;5012785;28;20030;-77
2022/05/26 00:58:49;;;;;;;8.43;7.63;;;;;;;10.80;100.00;99673.75;5012398;28;20542;-76
2022/05/26 01:01:16;;;;;;;10.50;8.52;;;;;;;10.73;100.00;99662.75;5012559;28;20037;-76
2022/05/26 01:03:48;;;;;;;9.68;8.77;;;;;;;10.78;100.00;99670.34;5012252;28;20026;-77
2022/05/26 01:06:33;;;;;;;8.65;7.93;;;;;;;10.73;100.00;99664.50;5012568;28;20112;-76
2022/05/26 01:09:01;;;;;;;9.15;8.35;;;;;;;10.80;100.00;99672.91;5012121;28;20034;-76
2022/05/26 01:11:30;;;;;;;9.52;8.73;;;;;;;10.80;100.00;99665.94;5012423;28;20030;-77
2022/05/26 01:14:00;;;;;;;10.02;9.07;;;;;;;10.90;100.00;99672.38;5012159;28;20033;-76
2022/05/26 01:16:31;;;;;;;10.15;8.68;;;;;;;10.97;100.00;99673.78;5012204;28;20033;-76
2022/05/26 01:19:34;;;;;;;10.63;9.63;;;;;;;11.05;100.00;99667.38;5011959;28;20084;-77
2022/05/26 01:22:11;;;;;;;11.35;10.20;;;;;;;11.06;100.00;99674.25;5012103;28;20037;-77
2022/05/26 01:24:52;;;;;;;9.98;9.00;;;;;;;11.11;100.00;99667.06;5012311;28;20038;-76
2022/05/26 01:27:23;;;;;;;10.75;9.77;;;;;;;11.11;100.00;99662.69;5012399;28;20069;-77
2022/05/26 01:30:00;;;;;;;10.98;9.98;;;;;;;11.08;100.00;99657.66;5012008;28;20045;-77
2022/05/26 01:32:54;;;;;;;10.80;9.80;;;;;;;11.09;100.00;99666.31;5012024;28;20120;-76
2022/05/26 01:35:22;;;;;;;11.07;10.02;;;;;;;11.06;100.00;99667.28;5011962;28;20541;-76
2022/05/26 01:38:15;;;;;;;11.52;10.52;;;;;;;10.96;100.00;99653.88;5012000;28;20062;-77
2022/05/26 01:40:58;;;;;;;11.30;10.20;;;;;;;10.98;100.00;99665.03;5011804;28;20029;-77
2022/05/26 01:43:48;;;;;;;10.50;9.60;;;;;;;10.95;100.00;99661.72;5011986;28;20391;-77
2022/05/26 01:46:23;;;;;;;11.77;10.35;;;;;;;10.92;100.00;99667.97;5012100;28;20053;-76
2022/05/26 01:49:14;;;;;;;12.43;10.38;;;;;;;10.79;100.00;99651.22;5011769;28;20645;-76
2022/05/26 01:51:46;;;;;;;12.88;10.48;;;;;;;10.73;100.00;99654.94;5012361;28;20545;-76
2022/05/26 01:54:18;;;;;;;11.45;10.35;;;;;;;10.72;100.00;99658.47;5011931;28;20217;-77
2022/05/26 01:56:52;;;;;;;11.55;10.43;;;;;;;10.69;100.00;99657.75;5011893;28;20513;-76
2022/05/26 01:59:29;;;;;;;11.77;10.57;;;;;;;10.59;100.00;99644.34;5011890;28;20022;-76
2022/05/26 02:01:59;;;;;;;12.38;11.27;;;;;;;10.64;100.00;99651.94;5011635;28;20200;-76
2022/05/26 02:04:36;;;;;;;;;;;;;;;10.62;100.00;99654.63;5014073;28;20510;-77
2022/05/26 02:07:08;;;;;;;11.25;10.25;;;;;;;10.53;100.00;99652.41;5015627;28;19916;-76
2022/05/26 02:09:41;;;;;;;12.20;10.80;;;;;;;10.54;100.00;99655.91;5015827;28;20036;-76
2022/05/26 02:12:37;;;;;;;11.85;10.75;;;;;;;10.51;100.00;99663.84;5015748;28;20022;-76
2022/05/26 02:15:07;;;;;;;11.55;10.50;;;;;;;10.42;100.00;99660.75;4954634;28;20081;-76
2022/05/26 02:17:37;;;;;;;;;;;;;;;10.44;100.00;99664.09;4955246;29;20085;-77
2022/05/26 02:20:02;;;;;;;10.55;9.65;;;;;;;10.41;100.00;99669.47;4954546;28;19915;-76
2022/05/26 02:22:36;;;;;;;12.35;11.10;;;;;;;10.29;100.00;99661.38;4954720;29;20101;-76
2022/05/26 02:25:18;;;;;;;11.48;10.48;;;;;;;10.33;100.00;99675.94;4954413;29;20504;-76
2022/05/26 02:27:44;;;;;;;14.27;11.48;;;;;;;10.30;100.00;99674.31;4954367;29;20036;-76
2022/05/26 02:30:12;;;;;;;12.07;10.88;;;;;;;10.24;100.00;99665.03;4954549;29;20031;-76
2022/05/26 02:32:42;;;;;;;12.30;11.18;;;;;;;10.26;100.00;99672.75;4954544;28;20428;-76
2022/05/26 02:35:23;;;;;;;12.77;11.48;;;;;;;10.16;100.00;99659.28;4954597;29;20031;-77
2022/05/26 02:37:54;;;;;;;12.30;10.88;;;;;;;10.22;100.00;99673.78;4954142;29;20123;-76
2022/05/26 02:40:20;;;;;;;13.20;10.93;;;;;;;10.14;100.00;99668.91;4954456;29;20039;-76
2022/05/26 02:42:54;;;;;;;11.80;10.48;;;;;;;10.19;100.00;99674.75;4954152;29;20039;-76
2022/05/26 02:45:42;;;;;;;11.85;10.68;;;;;;;10.15;100.00;99675.78;4954023;29;20058;-76
2022/05/26 02:48:35;;;;;;;11.75;10.25;;;;;;;10.15;100.00;99681.00;4954129;28;20027;-77
2022/05/26 02:51:37;;;;;;;10.95;10.02;;;;;;;10.14;100.00;99679.31;4964634;28;20046;-76
2022/05/26 02:54:18;;;;;;;11.90;10.82;;;;;;;10.12;100.00;99670.75;5014760;28;20384;-76
2022/05/26 02:57:00;;;;;;;11.13;10.13;;;;;;;10.13;100.00;99682.00;5014567;28;20029;-76
2022/05/26 02:59:41;;;;;;;11.52;10.52;;;;;;;10.11;100.00;99676.00;5013500;28;20026;-76
2022/05/26 03:02:15;;;;;;;10.63;9.63;;;;;;;10.02;100.00;99663.41;5014907;28;20026;-76
2022/05/26 03:04:45;;;;;;;11.02;10.02;;;;;;;10.06;100.00;99676.19;5014629;28;20033;-76
2022/05/26 03:07:22;;;;;;;11.18;10.18;;;;;;;10.06;100.00;99670.16;5014640;28;20116;-76
2022/05/26 03:09:48;;;;;;;11.93;10.70;;;;;;;10.03;100.00;99663.34;5014718;28;20399;-76
2022/05/26 03:12:26;;;;;;;11.70;10.57;;;;;;;10.08;100.00;99678.75;5014673;28;20034;-76
2022/05/26 03:14:52;;;;;;;12.10;10.93;;;;;;;10.08;100.00;99676.16;5013730;28;20040;-77
2022/05/26 03:17:17;;;;;;;11.88;10.70;;;;;;;10.12;100.00;99675.94;5014356;28;20026;-76
2022/05/26 03:19:43;;;;;;;11.63;10.43;;;;;;;10.01;100.00;99652.16;4991957;28;20042;-77
2022/05/26 03:22:08;;;;;;;12.50;10.35;;;;;;;10.14;100.00;99661.09;4992358;28;20046;-76
2022/05/26 03:24:33;;;;;;;12.50;11.10;;;;;;;10.18;100.00;99660.06;4992340;28;20034;-76
2022/05/26 03:26:59;;;;;;;12.90;11.60;;;;;;;10.19;100.00;99651.31;4992050;28;20428;-76
2022/05/26 03:29:24;;;;;;;12.25;11.15;;;;;;;10.28;100.00;99663.13;4992209;28;20038;-77
2022/05/26 03:31:50;;;;;;;11.52;10.52;;;;;;;10.37;100.00;99662.72;4991950;28;20117;-76
2022/05/26 03:42:27;;;;;;;11.60;10.50;;;;;;;10.68;100.00;99659.53;4991978;28;20061;-76
2022/05/26 03:44:53;;;;;;;11.30;10.10;;;;;;;10.70;100.00;99647.28;4991476;28;20046;-76
2022/05/26 03:47:18;;;;;;;11.63;10.52;;;;;;;10.87;100.00;99669.94;4991902;28;20101;-77
2022/05/26 03:49:44;;;;;;;11.95;10.70;;;;;;;10.92;100.00;99664.50;4993793;28;20081;-76
2022/05/26 03:52:09;;;;;;;11.75;10.70;;;;;;;10.99;100.00;99661.50;5013936;28;20065;-76
2022/05/26 03:54:35;;;;;;;11.77;10.57;;;;;;;11.06;100.00;99674.25;5013661;28;20022;-76
2022/05/26 03:57:00;;;;;;;13.07;11.88;;;;;;;11.08;100.00;99677.63;5013379;28;20022;-74
2022/05/26 03:59:26;;;;;;;13.85;11.85;;;;;;;11.12;100.00;99684.38;5013719;28;20403;-75
2022/05/26 04:01:52;;;;;;;12.85;11.60;;;;;;;11.27;100.00;99682.81;5013352;28;20026;-75
2022/05/26 04:04:18;;;;;;;15.27;12.43;;;;;;;11.34;100.00;99665.94;5013492;28;20030;-75
2022/05/26 04:06:43;;;;;;;14.77;13.23;;;;;;;11.46;100.00;99671.41;5013459;28;20032;-75
2022/05/26 04:09:09;;;;;;;13.88;12.48;;;;;;;11.53;100.00;99679.75;5013266;28;20026;-75
2022/05/26 04:11:35;;;;;;;13.73;12.43;;;;;;;11.60;100.00;99672.47;5013388;28;20061;-75
2022/05/26 04:14:00;;;;;;;13.73;12.32;;;;;;;11.74;100.00;99672.59;5013163;28;20388;-75
2022/05/26 04:16:26;;;;;;;13.23;11.93;;;;;;;11.86;100.00;99673.78;5013532;28;20028;-74
2022/05/26 04:18:52;;;;;;;11.77;10.50;;;;;;;11.94;100.00;99669.84;5013163;28;20029;-74
2022/05/26 04:21:17;;;;;;;12.38;10.98;;;;;;;12.04;100.00;99677.19;5013380;28;20038;-74
2022/05/26 04:23:43;;;;;;;11.02;9.93;;;;;;;12.17;100.00;99668.63;5013489;28;20033;-75
2022/05/26 04:26:09;;;;;;;9.00;8.20;;;;;;;12.35;100.00;99671.22;5012036;28;20026;-75
2022/05/26 04:28:36;;;;;;;10.13;9.02;;;;;;;12.48;100.00;99660.03;5013192;28;20541;-75
2022/05/26 04:31:01;;;;;;;9.40;8.60;;;;;;;12.84;100.00;99671.13;5012988;28;20383;-74
2022/05/26 04:33:27;;;;;;;8.95;8.25;;;;;;;13.35;100.00;99672.59;5013042;28;20026;-75
2022/05/26 04:35:53;;;;;;;9.98;7.55;;;;;;;13.92;100.00;99666.66;5012857;28;20029;-75
2022/05/26 04:38:21;;;;;;;8.27;7.28;;;;;;;14.31;100.00;99666.00;5012937;28;20033;-75
2022/05/26 04:40:56;;;;;;;9.07;7.30;;;;;;;14.73;100.00;99666.91;5012777;28;20418;-75
2022/05/26 04:43:22;;;;;;;9.65;6.93;;;;;;;15.36;100.00;99687.31;5012839;28;20113;-75
2022/05/26 04:45:47;;;;;;;7.13;6.53;;;;;;;15.70;100.00;99682.47;5011410;28;20050;-75
2022/05/26 04:48:13;;;;;;;6.50;5.60;;;;;;;15.72;100.00;99672.72;5012548;28;20033;-75
2022/05/26 04:50:39;;;;;;;7.55;6.07;;;;;;;15.82;100.00;99673.75;5012782;28;20029;-75
2022/05/26 04:53:04;;;;;;;7.53;6.45;;;;;;;15.93;100.00;99676.50;5012422;28;20486;-75
2022/05/26 04:55:30;;;;;;;6.45;5.85;;;;;;;16.05;100.00;99681.84;5012662;28;20066;-75
2022/05/26 04:57:55;;;;;;;9.93;6.22;;;;;;;16.38;100.00;99679.50;5012417;28;20030;-75
2022/05/26 05:00:20;;;;;;;6.78;6.18;;;;;;;16.90;100.00;99682.91;5012554;28;20066;-76
2022/05/26 05:02:46;;;;;;;6.75;5.18;;;;;;;16.81;100.00;99676.50;5012668;28;20033;-76
2022/05/26 05:05:12;;;;;;;5.82;4.65;;;;;;;16.52;100.00;99685.56;5012326;28;20066;-76
2022/05/26 05:07:37;;;;;;;7.97;5.30;;;;;;;16.13;100.00;99672.50;5012438;28;20475;-76
2022/05/26 05:10:04;;;;;;;6.45;5.20;;;;;;;15.93;100.00;99683.56;5012106;28;20044;-77
2022/05/26 05:12:29;;;;;;;5.95;5.38;;;;;;;15.67;100.00;99693.16;5012768;28;20030;-76
2022/05/26 05:14:56;;;;;;;5.80;5.30;;;;;;;15.45;100.00;99693.72;5012221;28;20026;-76
2022/05/26 05:17:24;;;;;;;6.03;5.40;;;;;;;15.25;100.00;99689.78;4994649;28;20036;-76
2022/05/26 05:19:50;;;;;;;6.50;4.90;;;;;;;15.08;100.00;99676.91;5012288;28;20030;-77
2022/05/26 05:22:19;;;;;;;6.13;5.07;;;;;;;15.06;100.00;99684.91;5016545;28;20036;-76
2022/05/26 05:24:53;;;;;;;5.07;4.55;;;;;;;15.05;100.00;99685.84;5031850;28;20112;-76
2022/05/26 05:27:43;;;;;;;4.80;4.30;;;;;;;15.02;100.00;99696.53;5031928;28;20029;-76
2022/05/26 05:30:19;;;;;;;5.20;4.22;;;;;;;14.97;100.00;99691.56;5031792;28;20112;-76
2022/05/26 05:33:06;;;;;;;5.80;4.15;;;;;;;14.98;100.00;99695.03;5031772;28;20131;-76
2022/05/26 05:35:55;;;;;;;4.35;3.70;;;;;;;15.02;100.00;99698.31;5014335;28;20025;-76
2022/05/26 05:38:21;;;;;;;6.60;3.97;;;;;;;15.07;100.00;99698.84;4989574;28;20041;-76
2022/05/26 05:40:48;;;;;;;4.07;3.78;;;;;;;15.18;100.00;99699.00;4990232;28;20049;-76
2022/05/26 05:43:14;;;;;;;4.10;3.70;;;;;;;15.33;100.00;99712.91;4989565;28;20046;-76
2022/05/26 05:45:39;;;;;;;5.28;3.78;;;;;;;15.38;100.00;99710.81;4989752;28;20125;-76
2022/05/26 05:48:06;;;;;;;3.95;3.55;;;;;;;15.44;100.00;99711.25;4989561;28;20046;-76
2022/05/26 05:50:32;;;;;;;4.22;3.60;;;;;;;15.44;100.00;99698.13;4989892;28;20041;-76
2022/05/26 05:52:58;;;;;;;4.43;3.90;;;;;;;15.58;100.00;99712.97;4989668;28;20038;-77
2022/05/26 05:55:24;;;;;;;3.80;3.25;;;;;;;15.57;100.00;99699.94;4989960;28;20035;-76
2022/05/26 05:57:50;;;;;;;4.22;3.67;;;;;;;15.66;100.00;99725.63;4989665;28;20034;-76
2022/05/26 06:00:15;;;;;;;4.53;3.45;;;;;;;15.65;100.00;99706.41;4989580;28;20042;-76
2022/05/26 06:02:41;;;;;;;4.88;3.60;;;;;;;15.66;100.00;99707.25;4989844;28;20031;-76
2022/05/26 06:05:07;;;;;;;4.28;3.58;;;;;;;15.71;100.00;99724.38;4989486;28;20117;-76
2022/05/26 06:07:33;;;;;;;4.38;3.97;;;;;;;15.69;100.00;99726.25;4989866;28;20037;-77
2022/05/26 06:09:58;;;;;;;3.80;3.50;;;;;;;15.65;100.00;99714.28;5021264;28;20596;-76
2022/05/26 06:12:24;;;;;;;3.80;3.50;;;;;;;15.81;100.00;99706.22;5031413;28;20029;-76
2022/05/26 06:14:49;;;;;;;5.03;3.65;;;;;;;16.05;100.00;99713.38;5031604;28;20521;-76
2022/05/26 06:17:15;;;;;;;3.72;3.33;;;;;;;16.17;100.00;99716.00;5031252;28;20025;-76
2022/05/26 06:19:42;;;;;;;5.35;3.17;;;;;;;16.32;100.00;99708.88;5031746;28;20033;-77
2022/05/26 06:22:09;;;;;;;4.75;3.53;;;;;;;16.60;100.00;99720.06;5031205;28;20029;-76
2022/05/26 06:24:37;;;;;;;4.80;3.53;;;;;;;16.70;100.00;99710.59;5031457;28;20044;-76
2022/05/26 06:29:49;;;;;;;3.90;3.30;;;;;;;16.92;100.00;99725.72;5031032;28;20152;-76
2022/05/26 06:29:51;;;;;;;3.22;2.92;;;;;;;17.01;100.00;99717.16;5031312;28;20040;-77
2022/05/26 06:37:50;;;;;;;3.10;2.80;;;;;;;17.68;98.53;99716.63;5031155;28;20080;-78
2022/05/26 06:40:16;;;;;;;2.78;2.58;;;;;;;17.91;97.83;99721.03;5030947;28;20033;-77
2022/05/26 06:42:44;;;;;;;2.70;2.50;;;;;;;18.06;96.78;99708.47;5031309;28;20032;-77
2022/05/26 06:45:11;;;;;;;5.07;2.70;;;;;;;18.26;95.85;99701.66;5030973;28;20052;-77
2022/05/26 06:47:36;;;;;;;3.30;2.40;;;;;;;18.70;94.86;99711.38;5031113;28;20041;-78
2022/05/26 06:50:02;;;;;;;2.90;2.58;;;;;;;19.28;92.76;99705.03;5032034;28;20485;-77
2022/05/26 06:52:28;;;;;;;2.95;2.53;;;;;;;19.93;89.52;99715.44;5035011;28;20036;-77
2022/05/26 06:54:54;;;;;;;2.35;2.15;;;;;;;20.76;86.54;99718.91;5034400;28;20033;-78
2022/05/26 06:57:20;;;;;;;2.10;2.00;;;;;;;21.66;82.20;99721.41;5034613;28;20487;-78
2022/05/26 06:59:45;;;;;;;2.05;1.90;;;;;;;22.32;78.74;99712.63;5034541;28;20041;-78
2022/05/26 07:02:13;;;;;;;2.50;2.13;;;;;;;23.42;74.54;99719.72;5034243;28;20026;-78
2022/05/26 07:04:40;;;;;;;2.38;2.17;;;;;;;24.74;69.18;99703.69;5034955;28;20036;-78
2022/05/26 07:07:06;;;;;;;3.22;1.75;;;;;;;25.75;63.70;99717.69;5016851;28;20041;-78
2022/05/26 07:09:31;;;;;;;3.60;1.90;;;;;;;26.56;60.42;99708.72;5034507;28;20128;-78
2022/05/26 07:11:58;;;;;;;3.53;1.85;;;;;;;26.77;57.71;99708.13;5034426;28;20083;-78
2022/05/26 07:14:24;;;;;;;2.17;1.60;;;;;;;26.75;56.79;99718.16;5034309;28;20471;-78
2022/05/26 07:16:49;;;;;;;2.00;1.63;;;;;;;26.54;55.22;99720.59;5034240;28;20029;-78
2022/05/26 07:19:16;;;;;;;4.95;1.55;;;;;;;25.96;56.38;99722.53;5034214;28;20032;-78
2022/05/26 07:21:43;;;;;;;2.97;1.52;;;;;;;25.67;56.47;99724.88;5034329;28;20501;-78
2022/05/26 07:24:10;;;;;;;3.15;1.67;;;;;;;25.66;56.84;99724.00;5033905;28;20033;-78
2022/05/26 07:26:37;;;;;;;2.00;1.50;;;;;;;25.65;55.75;99730.34;5034163;28;20486;-78
2022/05/26 07:29:02;;;;;;;1.80;1.27;;;;;;;25.38;54.46;99736.84;5034064;28;20038;-78
2022/05/26 07:31:28;;;;;;;2.67;1.65;;;;;;;25.14;55.71;99727.78;5034207;28;20026;-78
2022/05/26 07:33:54;;;;;;;4.25;1.63;;;;;;;24.83;54.80;99719.53;5033887;28;20030;-78
2022/05/26 07:41:53;;;;;;;2.72;1.50;;;;;;;24.36;55.13;99727.94;5033804;28;20091;-78
2022/05/26 07:44:18;;;;;;;2.25;1.40;;;;;;;24.35;56.08;99709.44;5033934;28;20030;-78
2022/05/26 07:46:44;;;;;;;3.42;1.60;;;;;;;24.82;55.33;99717.03;5033615;28;20609;-78
2022/05/26 07:49:09;;;;;;;1.90;1.52;;;;;;;26.30;52.12;99721.47;5033528;28;20021;-78
2022/05/26 07:51:34;;;;;;;1.50;1.20;;;;;;;27.73;45.69;99719.44;5033751;28;20513;-78
2022/05/26 07:54:00;;;;;;;2.90;1.60;;;;;;;28.02;42.03;99718.63;5033060;28;20033;-78
2022/05/26 07:56:33;;;;;;;4.47;1.60;;;;;;;28.78;40.35;99720.16;5033560;28;20025;-78
2022/05/26 07:58:58;;;;;;;2.97;1.33;;;;;;;29.36;38.41;99720.19;5033631;28;20032;-78
2022/05/26 08:01:24;;;;;;;1.83;1.40;;;;;;;30.13;36.19;99729.31;5033372;28;20367;-78
2022/05/26 08:03:53;;;;;;;2.78;1.38;;;;;;;30.93;34.73;99733.31;5033592;28;20091;-78
2022/05/26 08:06:19;;;;;;;1.37;1.17;;;;;;;31.45;32.39;99723.75;5033228;28;20104;-78
2022/05/26 08:08:44;;;;;;;3.10;1.27;;;;;;;32.63;31.69;99721.19;5033005;28;20030;-78
2022/05/26 08:11:10;;;;;;;1.95;1.50;;;;;;;34.72;28.46;99710.03;5032031;28;20032;-78
2022/05/26 08:13:35;;;;;;;3.30;1.30;;;;;;;34.15;27.78;99714.00;5032484;28;20040;-78
2022/05/26 08:16:01;;;;;;;2.97;1.40;;;;;;;32.41;29.17;99712.56;5032386;28;20108;-78
2022/05/26 08:18:27;;;;;;;5.03;1.30;;;;;;;31.01;31.39;99720.53;5032380;28;20022;-78
2022/05/26 08:20:52;;;;;;;1.80;1.27;;;;;;;29.79;32.40;99723.72;5033129;28;20073;-78
2022/05/26 08:23:22;;;;;;;1.67;1.30;;;;;;;28.86;33.76;99719.19;5032774;28;20451;-78
2022/05/26 08:25:48;;;;;;;3.45;1.10;;;;;;;27.99;35.40;99708.31;5032924;28;20025;-78
2022/05/26 08:28:14;;;;;;;4.35;1.50;;;;;;;27.34;36.26;99717.69;5032747;28;20414;-78
2022/05/26 08:30:39;;;;;;;1.77;1.50;;;;;;;26.94;37.15;99708.88;5032980;28;20429;-78
2022/05/26 08:33:05;;;;;;;1.85;1.20;;;;;;;26.71;37.07;99713.34;5032602;28;20037;-78
2022/05/26 08:35:30;;;;;;;4.13;1.40;;;;;;;26.30;37.61;99708.97;5032720;28;20080;-78
2022/05/26 08:37:56;;;;;;;1.63;1.23;;;;;;;25.99;38.18;99713.34;5032685;28;20029;-77
2022/05/26 08:40:24;;;;;;;4.60;1.45;;;;;;;25.79;38.57;99723.56;5032392;28;20030;-78
2022/05/26 08:42:49;;;;;;;4.35;1.30;;;;;;;25.36;39.22;99720.16;5033119;28;20076;-78
2022/05/26 08:45:15;;;;;;;4.15;1.50;;;;;;;25.22;40.21;99711.00;5032241;28;20050;-78
2022/05/26 08:47:44;;;;;;;1.10;1.08;;;;;;;25.38;41.25;99703.00;5032567;28;20391;-78
2022/05/26 08:50:20;;;;;;;4.13;1.42;;;;;;;25.58;41.35;99721.38;5032274;28;20033;-78
2022/05/26 08:52:48;;;;;;;1.55;1.33;;;;;;;25.35;40.58;99726.50;5032364;28;20021;-77
2022/05/26 08:55:23;;;;;;;1.92;1.30;;;;;;;25.26;40.71;99716.84;5032379;28;20036;-78
2022/05/26 08:58:13;;;;;;;1.70;1.30;;;;;;;25.05;41.22;99707.44;5032471;28;20057;-78
2022/05/26 09:00:41;;;;;;;1.95;1.40;;;;;;;24.81;41.60;99715.34;5014607;28;20041;-78
2022/05/26 09:03:28;;;;;;;2.25;1.13;;;;;;;24.69;41.29;99721.94;5032214;28;20347;-78
2022/05/26 09:06:12;;;;;;;1.58;1.30;;;;;;;24.48;42.50;99717.91;5032466;28;20026;-78
2022/05/26 09:14:19;;;;;;;1.45;1.30;;;;;;;24.07;43.40;99719.47;5031674;28;20079;-78
2022/05/26 09:16:45;;;;;;;1.30;1.10;;;;;;;24.11;44.79;99728.78;5032287;28;20082;-77
2022/05/26 09:19:17;;;;;;;1.45;1.30;;;;;;;24.20;44.65;99713.72;5031947;28;20426;-78
2022/05/26 09:21:44;;;;;;;1.27;1.20;;;;;;;24.17;43.83;99730.81;5032118;28;20036;-78
2022/05/26 09:24:30;;;;;;;1.40;1.30;;;;;;;24.17;43.75;99730.81;5031732;28;20453;-78
2022/05/26 09:26:59;;;;;;;1.52;1.42;;;;;;;24.00;44.59;99723.72;5032144;28;20048;-78
2022/05/26 09:29:30;;;;;;;1.77;1.45;;;;;;;23.77;44.56;99736.69;5031735;28;20502;-78
2022/05/26 09:31:58;;;;;;;1.60;1.45;;;;;;;23.51;44.66;99741.91;5031878;28;20033;-78
2022/05/26 09:34:32;;;;;;;3.63;1.65;;;;;;;23.33;45.26;99745.41;5031580;28;20025;-78
2022/05/26 09:37:00;;;;;;;1.58;1.48;;;;;;;23.28;45.63;99736.22;5031979;28;20478;-78
2022/05/26 09:39:34;;;;;;;3.58;1.65;;;;;;;23.36;46.11;99738.94;5031624;28;20036;-78
2022/05/26 09:42:01;;;;;;;1.45;1.35;;;;;;;23.18;47.17;99720.34;5031850;28;20025;-78
2022/05/26 09:44:32;;;;;;;1.60;1.20;;;;;;;23.08;46.41;99744.31;5031528;28;20029;-78
2022/05/26 09:47:01;;;;;;;2.17;1.48;;;;;;;22.83;46.67;99729.03;5031457;28;20111;-77
2022/05/26 09:49:33;;;;;;;2.50;1.58;;;;;;;22.60;46.53;99740.06;5031585;28;20026;-78
2022/05/26 09:52:14;;;;;;;1.15;1.15;;;;;;;22.72;46.67;99731.91;5031684;28;20414;-77
2022/05/26 09:54:40;;;;;;;2.05;1.38;;;;;;;22.65;47.04;99727.19;5031703;28;20021;-78
2022/05/26 09:57:31;;;;;;;4.05;1.35;;;;;;;22.64;47.86;99745.91;5031640;28;20033;-77
2022/05/26 09:59:57;;;;;;;3.30;1.30;;;;;;;22.82;47.84;99733.53;4932317;29;20051;-77
2022/05/26 10:02:35;;;;;;;2.45;1.35;;;;;;;22.84;47.48;99736.88;4931723;29;20477;-78
2022/05/26 10:05:15;;;;;;;1.80;1.20;;;;;;;23.09;47.91;99747.78;4932039;29;20056;-78
2022/05/26 10:07:46;;;;;;;;;;;;;;;23.16;47.66;99747.03;4932469;29;20044;-78
2022/05/26 10:10:56;;;;;;;2.05;1.35;;;;;;;23.05;47.78;99741.97;4931726;29;19922;-78
2022/05/26 10:13:48;;;;;;;2.92;1.20;;;;;;;22.93;48.27;99743.16;4875259;29;20041;-78
2022/05/26 10:16:32;;;;;;;3.85;1.30;;;;;;;22.75;48.79;99740.41;4875215;29;20510;-78
2022/05/26 10:19:06;;;;;;;1.88;1.48;;;;;;;22.50;48.44;99749.91;4875461;29;20170;-78
2022/05/26 10:21:52;;;;;;;3.20;1.45;;;;;;;22.44;48.66;99755.75;4875188;29;20041;-78
2022/05/26 10:24:18;;;;;;;1.58;1.25;;;;;;;22.45;48.01;99743.31;4875270;29;20120;-77
2022/05/26 10:26:51;;;;;;;3.40;1.10;;;;;;;22.41;47.25;99746.25;4879052;29;20207;-77
2022/05/26 10:29:35;;;;;;;2.67;1.45;;;;;;;22.33;47.69;99743.53;4878845;29;20033;-78
2022/05/26 10:32:19;;;;;;;1.58;1.15;;;;;;;22.30;48.78;99743.81;4879046;29;20592;-78
2022/05/26 10:34:56;;;;;;;3.38;1.23;;;;;;;22.25;48.83;99746.06;4878849;29;20029;-78
2022/05/26 10:37:49;;;;;;;2.00;1.20;;;;;;;22.20;49.19;99750.09;4935195;29;20125;-78
2022/05/26 10:40:36;;;;;;;2.03;1.15;;;;;;;22.20;49.39;99747.44;4954293;29;20039;-77
2022/05/26 10:43:11;;;;;;;0.95;0.95;;;;;;;22.12;49.59;99756.09;4954333;29;20106;-78
2022/05/26 10:45:43;;;;;;;3.72;1.35;;;;;;;22.31;50.00;99758.72;4954201;29;20114;-78
2022/05/26 10:48:36;;;;;;;1.88;1.20;;;;;;;22.67;49.35;99750.94;4954098;28;20035;-78
2022/05/26 10:51:08;;;;;;;3.08;1.20;;;;;;;22.93;48.81;99743.16;5027928;28;20096;-78
2022/05/26 10:53:47;;;;;;;4.00;1.05;;;;;;;22.94;47.38;99739.50;5034481;28;20033;-77
2022/05/26 10:56:19;;;;;;;2.05;1.17;;;;;;;22.82;47.05;99748.63;5034650;28;20029;-78
2022/05/26 10:58:49;;;;;;;3.00;1.33;;;;;;;22.50;48.29;99752.53;5034704;28;20535;-78
2022/05/26 11:01:22;;;;;;;4.60;1.57;;;;;;;22.21;48.84;99760.59;5034669;28;20038;-77
2022/05/26 11:03:51;;;;;;;2.85;1.50;;;;;;;21.88;49.45;99757.41;5034342;28;20029;-77
2022/05/26 11:06:25;;;;;;;2.25;1.30;;;;;;;21.83;49.97;99766.75;5034152;28;20033;-77
2022/05/26 11:09:02;;;;;;;2.25;1.10;;;;;;;22.00;50.03;99749.28;5034568;28;20037;-78
2022/05/26 11:11:45;;;;;;;2.20;1.58;;;;;;;22.14;49.83;99752.34;5034290;28;20563;-77
2022/05/26 11:17:24;;;;;;;1.70;1.13;;;;;;;22.57;48.11;99764.22;5034681;28;20450;-77
2022/05/26 11:20:05;;;;;;;1.13;1.13;;;;;;;22.72;47.76;99755.81;5034252;28;20049;-77
2022/05/26 11:22:31;;;;;;;3.35;1.40;;;;;;;22.82;47.69;99765.38;5033898;28;20029;-77
2022/05/26 11:24:58;;;;;;;1.58;1.20;;;;;;;22.81;47.95;99752.28;5034058;28;20029;-77
2022/05/26 11:27:52;;;;;;;2.17;1.40;;;;;;;22.87;47.29;99770.25;5034071;28;20025;-77
2022/05/26 11:37:01;;;;;;;1.45;1.13;;;;;;;21.97;48.28;99782.22;5033126;28;20045;-77
2022/05/26 11:39:37;;;;;;;3.13;1.27;;;;;;;21.77;49.19;99762.00;5031859;28;20031;-77
2022/05/26 11:42:07;;;;;;;1.38;1.20;;;;;;;21.92;49.98;99771.22;5013839;28;20037;-77
2022/05/26 11:44:40;;;;;;;2.13;1.55;;;;;;;21.92;50.58;99773.88;5013020;28;20527;-77
2022/05/26 11:47:23;;;;;;;1.30;1.20;;;;;;;21.90;50.21;99766.03;5014034;28;20084;-78
2022/05/26 11:49:49;;;;;;;2.05;1.55;;;;;;;22.09;49.12;99759.88;5013940;28;20033;-77
2022/05/26 11:52:46;;;;;;;2.38;1.35;;;;;;;22.25;48.59;99769.06;5013866;28;20026;-78
2022/05/26 11:55:50;;;;;;;1.40;1.20;;;;;;;22.44;48.60;99762.88;4996520;28;20053;-77
2022/05/26 11:58:26;;;;;;;1.38;1.15;;;;;;;22.76;48.60;99741.25;5012933;28;20018;-78
2022/05/26 12:01:09;;;;;;;1.60;1.35;;;;;;;22.89;47.90;99747.06;5013458;28;20022;-77
2022/05/26 12:04:02;;;;;;;2.38;1.40;;;;;;;22.76;47.54;99750.06;5013210;28;20034;-78
2022/05/26 12:06:36;;;;;;;1.98;1.30;;;;;;;22.75;47.15;99755.50;5013042;28;20110;-77
2022/05/26 12:09:11;;;;;;;1.77;1.50;;;;;;;22.62;47.03;99740.72;5013356;28;20113;-78
2022/05/26 12:11:54;;;;;;;1.45;1.10;;;;;;;22.58;47.25;99742.00;5013172;28;20475;-77
2022/05/26 12:14:23;;;;;;;1.70;1.13;;;;;;;22.33;47.92;99753.28;5013204;28;20126;-77
2022/05/26 12:16:48;;;;;;;1.67;1.35;;;;;;;22.07;48.04;99753.03;5013349;28;20021;-77
2022/05/26 12:19:52;;;;;;;1.63;1.45;;;;;;;21.87;49.53;99754.91;5013225;28;20030;-77
2022/05/26 12:22:22;;;;;;;2.50;1.48;;;;;;;21.98;49.87;99743.28;5013016;28;20026;-78